Portada
METAR-TAF:

METAR-TAF

Aeroports :

València, Espanya

latitud: 39-37-26N, longitud: 0-28-26W, altitud: 127 m

Observació

L'informe es va fer fa 29 minuts, a les 21:00 UTC
Vent calma
Temperatura 23°C
Humitat 73%
Pressió 1018 hPa
Visibilitat 10 km o més

METAR: LEBT 232100Z AUTO 00000KT 9999 NCD 23/18 Q1018

Hora: 23:29 (21:29 UTC)


TAF: manca

Observacions i pronòstics meteorològics de més de 4000 aeroports (METAR i TAF).

Les estacions disponibles són els punts grocs i vermells al mapa.

Posi el ratolí al punt desitjat per veure el nom de l'estació.

Feu clic per veure les observacions i els pronòstics meteorològics.

Per canviar el mapa: feu clic els botons verds amb una creu de color negre per apropar; al botó verd amb un guió per allunyar la imatge; o en les fletxes verdes per a mapes adjacents.


METAR-TAF: